createdAt,value
2019-04-01T00:00:04.990Z,47.7577
2019-04-01T00:00:28.381Z,47.9622
2019-04-01T00:00:51.697Z,48.1743
2019-04-01T00:01:15.036Z,48.1926
2019-04-01T00:01:38.394Z,47.8355
2019-04-01T00:02:01.717Z,48.0232
2019-04-01T00:02:25.069Z,47.7333
2019-04-01T00:02:48.431Z,48.0308
2019-04-01T00:03:11.757Z,47.9484
2019-04-01T00:03:35.078Z,47.9713
2019-04-01T00:04:00.491Z,47.9179
2019-04-01T00:04:26.212Z,47.7943
2019-04-01T00:04:51.591Z,47.4968
2019-04-01T00:05:16.969Z,47.6921
2019-04-01T00:05:42.350Z,47.8569
2019-04-01T00:06:07.739Z,47.6524
2019-04-01T00:06:33.126Z,47.7668
2019-04-01T00:06:58.495Z,47.7424
2019-04-01T00:07:23.886Z,47.8843
2019-04-01T00:07:49.250Z,47.8523
2019-04-01T00:08:14.620Z,47.7333
2019-04-01T00:08:39.987Z,47.9713
2019-04-01T00:09:05.530Z,48.0400
2019-04-01T00:09:30.956Z,47.7165
2019-04-01T00:09:56.331Z,47.7836
2019-04-01T00:10:21.706Z,47.8813
2019-04-01T00:10:47.074Z,47.5929
2019-04-01T00:11:12.469Z,48.2795
2019-04-01T00:11:36.468Z,48.0583
2019-04-01T00:11:59.781Z,48.0720
2019-04-01T00:12:23.103Z,48.1605
2019-04-01T00:12:46.478Z,48.1239
2019-04-01T00:13:09.884Z,48.0827
2019-04-01T00:13:33.202Z,47.8294
2019-04-01T00:13:56.563Z,47.9072
2019-04-01T00:14:19.878Z,47.6616
2019-04-01T00:14:43.230Z,47.7256
2019-04-01T00:15:06.673Z,47.9316
2019-04-01T00:15:29.984Z,47.8294
2019-04-01T00:15:53.295Z,47.9393
2019-04-01T00:16:16.638Z,47.9164
2019-04-01T00:16:39.957Z,48.0827
2019-04-01T00:17:03.269Z,47.9408
2019-04-01T00:17:26.641Z,47.7241
2019-04-01T00:17:49.977Z,47.8401
2019-04-01T00:18:13.308Z,47.7989
2019-04-01T00:18:36.861Z,48.0919
2019-04-01T00:19:03.239Z,47.9530
2019-04-01T00:19:26.963Z,48.0949
2019-04-01T00:19:50.631Z,47.9042
2019-04-01T00:20:13.943Z,47.9408
2019-04-01T00:20:37.261Z,48.0186
2019-04-01T00:21:00.615Z,48.0781
2019-04-01T00:21:23.933Z,47.9774
2019-04-01T00:21:47.248Z,47.8981
2019-04-01T00:22:10.760Z,47.9637
2019-04-01T00:22:34.119Z,47.6753
2019-04-01T00:22:57.545Z,47.9942
2019-04-01T00:23:21.048Z,47.8157
2019-04-01T00:23:44.368Z,48.0034
2019-04-01T00:24:07.690Z,48.0308
2019-04-01T00:24:31.070Z,47.9438
2019-04-01T00:24:54.452Z,47.8157
2019-04-01T00:25:17.785Z,47.6616
2019-04-01T00:25:43.184Z,47.6066
2019-04-01T00:26:08.571Z,48.0552
2019-04-01T00:26:33.951Z,47.7760
2019-04-01T00:26:59.327Z,47.5929
2019-04-01T00:27:24.789Z,47.7974
2019-04-01T00:27:50.163Z,47.9210
2019-04-01T00:28:13.670Z,47.8859
2019-04-01T00:28:36.993Z,47.8523
2019-04-01T00:29:00.315Z,47.8294
2019-04-01T00:29:23.678Z,47.9133
2019-04-01T00:29:47.009Z,47.8630
2019-04-01T00:30:10.372Z,47.8981
2019-04-01T00:30:33.741Z,48.0125
2019-04-01T00:30:57.054Z,48.0735
2019-04-01T00:31:20.362Z,48.0507
2019-04-01T00:31:43.788Z,48.0491
2019-04-01T00:32:07.117Z,47.9759
2019-04-01T00:32:30.435Z,47.8340
2019-04-01T00:32:53.801Z,47.7058
2019-04-01T00:33:17.119Z,47.7302
2019-04-01T00:33:40.447Z,47.8584
2019-04-01T00:34:06.004Z,47.7287
2019-04-01T00:34:31.378Z,47.7699
2019-04-01T00:34:56.746Z,47.8447
2019-04-01T00:35:22.157Z,47.8569
2019-04-01T00:35:47.522Z,47.5975
2019-04-01T00:36:12.900Z,47.8706
2019-04-01T00:36:38.457Z,47.8981
2019-04-01T00:37:03.830Z,47.7699
2019-04-01T00:37:29.200Z,47.8675
2019-04-01T00:37:54.570Z,47.8157
2019-04-01T00:38:19.942Z,47.8538
2019-04-01T00:38:45.309Z,47.9179
2019-04-01T00:39:08.735Z,47.9454
2019-04-01T00:39:32.050Z,47.9988
2019-04-01T00:39:55.371Z,47.9911
2019-04-01T00:40:18.778Z,47.7897
2019-04-01T00:40:31.358Z,47.7241
2019-04-01T00:40:54.676Z,47.4922
2019-04-01T00:41:17.996Z,47.6753
2019-04-01T00:41:43.415Z,47.5334
2019-04-01T00:42:08.787Z,47.7302
2019-04-01T00:42:34.159Z,47.6524
2019-04-01T00:42:59.527Z,47.6005
2019-04-01T00:43:24.891Z,47.7424
2019-04-01T00:43:50.261Z,47.6509
2019-04-01T00:44:13.663Z,47.6692
2019-04-01T00:44:40.234Z,47.7562
2019-04-01T00:45:03.839Z,47.6158
2019-04-01T00:45:27.191Z,47.6158
2019-04-01T00:45:50.561Z,47.6387
2019-04-01T00:46:13.911Z,47.5227
2019-04-01T00:46:37.279Z,47.6051
2019-04-01T00:47:00.606Z,47.3991
2019-04-01T00:47:23.929Z,47.4357
2019-04-01T00:47:47.307Z,47.4815
2019-04-01T00:48:10.700Z,47.2908
2019-04-01T00:48:34.039Z,47.5227
2019-04-01T00:48:57.410Z,47.3411
2019-04-01T00:49:20.725Z,47.6066
2019-04-01T00:49:44.039Z,47.4144
2019-04-01T00:50:07.392Z,47.6066
2019-04-01T00:50:30.701Z,47.5563
2019-04-01T00:50:54.060Z,47.4601
2019-04-01T00:51:17.579Z,47.3762
2019-04-01T00:51:40.899Z,47.4540
2019-04-01T00:52:04.220Z,47.4174
2019-04-01T00:52:27.569Z,47.2755
2019-04-01T00:52:50.886Z,46.9245
2019-04-01T00:53:17.782Z,47.1794
2019-04-01T00:53:41.404Z,47.2908
2019-04-01T00:54:04.741Z,47.2358
2019-04-01T00:54:28.066Z,47.1992
2019-04-01T00:54:51.474Z,47.2023
2019-04-01T00:55:14.789Z,47.1855
2019-04-01T00:55:38.105Z,47.0924
2019-04-01T00:56:01.504Z,47.1336
2019-04-01T00:56:24.824Z,47.0558
2019-04-01T00:56:48.155Z,47.4632
2019-04-01T00:57:11.510Z,47.4769
2019-04-01T00:57:34.825Z,47.4495
2019-04-01T00:57:58.144Z,47.4510
2019-04-01T00:58:21.529Z,47.6158
2019-04-01T00:58:44.873Z,47.4220
2019-04-01T00:59:08.192Z,47.2938
2019-04-01T00:59:31.546Z,47.1931
2019-04-01T00:59:54.864Z,47.4189
2019-04-01T01:00:18.174Z,47.4403
2019-04-01T01:00:41.531Z,47.4372
2019-04-01T01:01:04.950Z,47.3350
2019-04-01T01:01:28.276Z,47.2206
2019-04-01T01:01:51.696Z,47.2175
2019-04-01T01:02:15.008Z,47.5135
2019-04-01T01:02:38.329Z,47.5151
2019-04-01T01:03:01.700Z,47.4266
2019-04-01T01:03:25.016Z,47.2541
2019-04-01T01:03:48.353Z,47.2068
2019-04-01T01:04:11.722Z,47.3182
2019-04-01T01:04:35.039Z,47.2953
2019-04-01T01:04:58.359Z,47.2450
2019-04-01T01:05:21.773Z,47.2816
2019-04-01T01:05:45.102Z,47.3411
2019-04-01T01:06:08.454Z,47.3411
2019-04-01T01:06:31.826Z,47.1382
2019-04-01T01:06:55.150Z,47.3442
2019-04-01T01:07:18.477Z,47.4464
2019-04-01T01:07:41.848Z,47.3030
2019-04-01T01:08:05.175Z,47.2541
2019-04-01T01:08:28.494Z,47.2389
2019-04-01T01:08:52.119Z,47.3823
2019-04-01T01:09:15.464Z,47.4189
2019-04-01T01:09:38.778Z,47.3350
2019-04-01T01:10:02.128Z,47.3457
2019-04-01T01:10:25.453Z,47.3182
2019-04-01T01:10:48.778Z,47.2633
2019-04-01T01:11:12.170Z,47.1901
2019-04-01T01:11:35.478Z,47.2450
2019-04-01T01:11:58.812Z,47.2663
2019-04-01T01:12:22.233Z,47.3182
2019-04-01T01:12:45.571Z,47.2175
2019-04-01T01:13:08.901Z,47.1901
2019-04-01T01:13:32.267Z,47.1763
2019-04-01T01:13:55.664Z,47.3274
2019-04-01T01:14:19.073Z,47.3915
2019-04-01T01:14:42.449Z,47.4052
2019-04-01T01:15:05.781Z,47.3167
2019-04-01T01:15:29.095Z,47.2526
2019-04-01T01:15:52.678Z,47.2541
2019-04-01T01:16:16.023Z,47.3762
2019-04-01T01:16:39.347Z,47.3442
2019-04-01T01:17:02.704Z,47.2633
2019-04-01T01:17:26.081Z,47.2862
2019-04-01T01:17:49.417Z,47.2480
2019-04-01T01:18:12.765Z,47.1061
2019-04-01T01:18:36.093Z,47.2984
2019-04-01T01:18:59.407Z,47.3442
2019-04-01T01:19:22.901Z,47.2175
2019-04-01T01:19:46.221Z,47.1565
2019-04-01T01:20:09.546Z,47.0741
2019-04-01T01:20:33.926Z,47.0069
2019-04-01T01:20:57.237Z,47.2251
2019-04-01T01:21:20.590Z,47.0191
2019-04-01T01:21:43.950Z,47.1351
2019-04-01T01:22:07.277Z,47.1199
2019-04-01T01:22:30.589Z,47.0741
2019-04-01T01:22:53.994Z,47.1214
2019-04-01T01:23:17.316Z,46.9596
2019-04-01T01:23:40.638Z,46.8498
2019-04-01T01:24:04.013Z,47.0695
2019-04-01T01:24:27.334Z,47.1199
2019-04-01T01:24:50.656Z,47.1580
2019-04-01T01:25:14.020Z,47.0710
2019-04-01T01:25:37.354Z,47.1199
2019-04-01T01:26:00.749Z,46.9932
2019-04-01T01:26:24.306Z,47.0466
2019-04-01T01:26:47.628Z,47.0329
2019-04-01T01:27:10.946Z,47.0573
2019-04-01T01:27:34.409Z,47.0649
2019-04-01T01:27:57.805Z,47.0298
2019-04-01T01:28:21.128Z,46.9917
2019-04-01T01:28:44.584Z,46.9825
2019-04-01T01:29:07.923Z,47.1199
2019-04-01T01:29:31.242Z,46.9795
2019-04-01T01:29:56.636Z,46.8910
2019-04-01T01:30:22.027Z,46.5950
2019-04-01T01:30:47.402Z,46.5431
2019-04-01T01:31:12.772Z,46.8009
2019-04-01T01:31:38.191Z,46.7765
2019-04-01T01:32:03.573Z,46.7857
2019-04-01T01:32:27.020Z,46.9520
2019-04-01T01:32:50.344Z,47.0665
2019-04-01T01:33:13.664Z,46.8605
2019-04-01T01:33:37.045Z,46.7308
2019-04-01T01:34:00.455Z,46.7002
2019-04-01T01:34:23.780Z,46.9566
2019-04-01T01:34:47.172Z,46.9291
2019-04-01T01:35:10.496Z,46.9703
2019-04-01T01:35:33.818Z,46.8452
2019-04-01T01:35:57.338Z,46.8864
2019-04-01T01:36:20.773Z,46.9474
2019-04-01T01:36:44.113Z,46.8956
2019-04-01T01:37:07.469Z,46.7720
2019-04-01T01:37:30.789Z,46.9108
2019-04-01T01:37:54.117Z,46.8315
2019-04-01T01:38:17.472Z,46.9596
2019-04-01T01:38:40.805Z,46.8696
2019-04-01T01:39:04.133Z,46.8727
2019-04-01T01:39:27.538Z,46.7689
2019-04-01T01:39:50.857Z,46.6438
2019-04-01T01:40:14.175Z,46.6529
2019-04-01T01:40:37.541Z,46.6255
2019-04-01T01:41:00.881Z,46.5766
2019-04-01T01:41:24.209Z,46.6545
2019-04-01T01:41:47.617Z,46.7811
2019-04-01T01:42:10.930Z,46.7414
2019-04-01T01:42:34.249Z,46.6896
2019-04-01T01:42:57.772Z,46.6392
2019-04-01T01:43:21.118Z,46.7048
2019-04-01T01:43:44.430Z,46.8101
2019-04-01T01:44:07.811Z,46.8605
2019-04-01T01:44:31.124Z,46.7140
2019-04-01T01:44:54.463Z,46.6484
2019-04-01T01:45:17.837Z,46.6499
2019-04-01T01:45:41.155Z,46.7048
2019-04-01T01:45:54.333Z,46.6255
2019-04-01T01:46:17.642Z,46.5660
2019-04-01T01:46:41.195Z,46.4515
2019-04-01T01:47:04.543Z,46.4881
2019-04-01T01:47:27.868Z,46.3462
2019-04-01T01:47:51.217Z,46.4378
2019-04-01T01:48:14.547Z,46.3233
2019-04-01T01:48:37.876Z,46.5110
2019-04-01T01:49:01.239Z,46.6621
2019-04-01T01:49:24.577Z,46.5156
2019-04-01T01:49:47.896Z,46.5995
2019-04-01T01:50:11.509Z,46.5034
2019-04-01T01:50:34.836Z,46.4057
2019-04-01T01:50:58.165Z,46.5217
2019-04-01T01:51:21.735Z,46.3600
2019-04-01T01:51:45.052Z,46.4469
2019-04-01T01:52:08.425Z,46.5019
2019-04-01T01:52:31.795Z,46.5080
2019-04-01T01:52:55.114Z,46.4759
2019-04-01T01:53:18.448Z,46.2425
2019-04-01T01:53:41.945Z,46.2791
2019-04-01T01:54:05.302Z,46.2745
2019-04-01T01:54:28.636Z,46.4714
2019-04-01T01:54:52.000Z,46.4332
2019-04-01T01:55:15.315Z,46.2562
2019-04-01T01:55:38.643Z,46.3508
2019-04-01T01:56:02.008Z,46.2242
2019-04-01T01:56:25.337Z,46.2882
2019-04-01T01:56:48.650Z,46.3661
2019-04-01T01:57:12.478Z,46.4195
2019-04-01T01:57:35.811Z,46.3371
2019-04-01T01:57:59.126Z,46.3554
2019-04-01T01:58:22.488Z,46.3416
2019-04-01T01:58:45.809Z,46.3523
2019-04-01T01:59:09.153Z,46.2608
2019-04-01T01:59:32.509Z,46.1463
2019-04-01T01:59:55.831Z,46.2470
2019-04-01T02:00:19.160Z,46.2104
2019-04-01T02:00:42.573Z,46.2135
2019-04-01T02:01:05.903Z,46.3111
2019-04-01T02:01:29.248Z,46.3523
2019-04-01T02:01:52.601Z,46.2745
2019-04-01T02:02:15.970Z,46.2974
2019-04-01T02:02:39.289Z,46.1555
2019-04-01T02:03:02.646Z,46.3371
2019-04-01T02:03:25.972Z,46.2318
2019-04-01T02:03:49.297Z,46.3478
2019-04-01T02:04:12.707Z,46.3478
2019-04-01T02:04:36.023Z,46.4012
2019-04-01T02:04:59.335Z,46.2013
2019-04-01T02:05:22.699Z,46.1463
2019-04-01T02:05:46.025Z,46.0548
2019-04-01T02:06:09.379Z,46.1036
2019-04-01T02:06:32.742Z,45.9892
2019-04-01T02:06:56.065Z,45.9586
2019-04-01T02:07:19.434Z,45.8808
2019-04-01T02:07:42.839Z,45.9068
2019-04-01T02:08:06.166Z,46.0090
2019-04-01T02:08:29.484Z,46.0594
2019-04-01T02:08:52.857Z,46.1219
2019-04-01T02:09:16.188Z,46.0075
2019-04-01T02:09:39.507Z,45.9937
2019-04-01T02:10:02.884Z,45.9358
2019-04-01T02:10:26.211Z,45.9892
2019-04-01T02:10:49.547Z,46.1311
2019-04-01T02:11:12.959Z,46.0899
2019-04-01T02:11:36.280Z,46.0548
2019-04-01T02:11:59.595Z,46.0304
2019-04-01T02:12:22.991Z,45.9754
2019-04-01T02:12:46.335Z,45.9663
2019-04-01T02:13:09.689Z,45.9525
2019-04-01T02:13:33.117Z,45.8885
2019-04-01T02:13:56.437Z,45.8625
2019-04-01T02:14:19.768Z,45.6474
2019-04-01T02:14:43.261Z,45.8122
2019-04-01T02:15:06.585Z,45.8167
2019-04-01T02:15:29.922Z,45.8167
2019-04-01T02:15:53.284Z,45.8518
2019-04-01T02:16:16.597Z,45.8473
2019-04-01T02:16:39.922Z,45.8991
2019-04-01T02:17:03.276Z,45.8351
2019-04-01T02:17:26.625Z,45.8473
2019-04-01T02:17:49.941Z,45.8488
2019-04-01T02:18:13.368Z,45.8335
2019-04-01T02:18:36.685Z,45.8534
2019-04-01T02:19:00.004Z,45.6931
2019-04-01T02:19:23.353Z,45.8122
2019-04-01T02:19:46.660Z,45.8061
2019-04-01T02:20:09.992Z,45.8717
2019-04-01T02:20:33.354Z,45.8930
2019-04-01T02:20:56.682Z,45.8442
2019-04-01T02:21:20.016Z,45.8610
2019-04-01T02:21:45.425Z,45.7298
2019-04-01T02:22:10.815Z,45.6794
2019-04-01T02:22:25.319Z,45.7191
2019-04-01T02:22:50.834Z,45.7282
2019-04-01T02:23:16.208Z,45.7420
2019-04-01T02:23:41.583Z,45.7832
2019-04-01T02:24:06.960Z,45.7832
2019-04-01T02:24:30.508Z,45.8106
2019-04-01T02:24:53.820Z,45.7801
2019-04-01T02:25:17.144Z,45.7694
2019-04-01T02:25:40.506Z,45.7389
2019-04-01T02:26:03.841Z,45.7923
2019-04-01T02:26:27.174Z,45.7389
2019-04-01T02:26:50.531Z,45.7786
2019-04-01T02:27:13.852Z,45.6642
2019-04-01T02:27:37.171Z,45.7191
2019-04-01T02:28:02.740Z,45.7282
2019-04-01T02:28:28.108Z,45.6916
2019-04-01T02:28:53.548Z,45.6886
2019-04-01T02:29:18.950Z,45.6779
2019-04-01T02:29:44.316Z,45.5772
2019-04-01T02:30:09.702Z,45.6519
2019-04-01T02:30:35.251Z,45.7023
2019-04-01T02:31:00.627Z,45.7603
2019-04-01T02:31:26.007Z,45.7877
2019-04-01T02:31:51.437Z,45.6382
2019-04-01T02:32:16.839Z,45.5268
2019-04-01T02:32:42.221Z,45.4734
2019-04-01T02:33:05.977Z,45.5406
2019-04-01T02:33:29.317Z,45.4276
2019-04-01T02:33:52.651Z,45.4124
2019-04-01T02:34:16.012Z,45.4902
2019-04-01T02:34:39.334Z,45.3849
2019-04-01T02:35:02.655Z,45.5146
2019-04-01T02:35:26.021Z,45.3956
2019-04-01T02:35:49.345Z,45.3544
2019-04-01T02:36:12.684Z,45.4444
2019-04-01T02:36:36.184Z,45.4963
2019-04-01T02:36:59.534Z,45.4047
2019-04-01T02:37:22.889Z,45.4170
2019-04-01T02:37:46.293Z,45.4307
2019-04-01T02:38:09.658Z,45.5329
2019-04-01T02:38:32.995Z,45.4597
2019-04-01T02:38:56.499Z,45.4047
2019-04-01T02:39:19.837Z,45.4047
2019-04-01T02:39:43.191Z,45.2399
2019-04-01T02:40:06.918Z,45.2811
2019-04-01T02:40:30.261Z,45.2705
2019-04-01T02:40:53.588Z,45.3071
2019-04-01T02:41:16.953Z,45.2842
2019-04-01T02:41:40.287Z,45.2796
2019-04-01T02:42:03.617Z,45.3315
2019-04-01T02:42:27.008Z,45.4307
2019-04-01T02:42:50.333Z,45.3529
2019-04-01T02:43:13.775Z,45.3529
2019-04-01T02:43:37.226Z,45.2522
2019-04-01T02:44:00.573Z,45.3361
2019-04-01T02:44:23.898Z,45.3254
2019-04-01T02:44:47.274Z,45.3117
2019-04-01T02:45:10.720Z,45.3620
2019-04-01T02:45:34.058Z,45.3483
2019-04-01T02:45:57.527Z,45.2522
2019-04-01T02:46:20.875Z,45.2384
2019-04-01T02:46:44.236Z,45.1484
2019-04-01T02:47:07.770Z,45.0980
2019-04-01T02:47:31.120Z,45.1972
2019-04-01T02:47:54.447Z,45.1743
2019-04-01T02:48:18.146Z,45.0736
2019-04-01T02:48:41.470Z,45.1377
2019-04-01T02:49:04.804Z,45.1240
2019-04-01T02:49:28.176Z,45.1514
2019-04-01T02:49:51.505Z,45.1255
2019-04-01T02:50:14.859Z,45.1514
2019-04-01T02:50:38.272Z,45.1209
2019-04-01T02:51:01.677Z,45.2110
2019-04-01T02:51:25.031Z,45.2338
2019-04-01T02:51:49.286Z,45.1347
2019-04-01T02:52:12.624Z,45.1377
2019-04-01T02:52:35.950Z,45.1301
2019-04-01T02:52:59.312Z,45.1942
2019-04-01T02:53:22.688Z,45.1057
2019-04-01T02:53:46.017Z,45.1514
2019-04-01T02:54:11.692Z,45.0919
2019-04-01T02:54:37.094Z,45.0919
2019-04-01T02:55:06.367Z,45.1026
2019-04-01T02:55:32.392Z,45.0523
2019-04-01T02:55:57.768Z,45.0797
2019-04-01T02:56:23.169Z,45.0156
2019-04-01T02:56:46.696Z,44.9058
2019-04-01T02:57:10.017Z,44.9561
2019-04-01T02:57:33.351Z,44.8783
2019-04-01T02:57:56.733Z,44.8493
2019-04-01T02:58:20.057Z,44.8875
2019-04-01T02:58:43.405Z,44.8859
2019-04-01T02:59:06.759Z,44.9378
2019-04-01T02:59:30.094Z,44.9241
2019-04-01T02:59:53.416Z,44.8631
2019-04-01T03:00:16.998Z,44.8234
2019-04-01T03:00:40.349Z,44.8875
2019-04-01T03:01:03.701Z,44.9409
2019-04-01T03:01:27.103Z,44.9424
2019-04-01T03:01:50.435Z,44.9134
2019-04-01T03:02:13.795Z,44.9226
2019-04-01T03:02:37.168Z,44.9043
2019-04-01T03:03:00.539Z,44.8218
2019-04-01T03:03:23.895Z,44.8829
2019-04-01T03:03:49.447Z,44.8585
2019-04-01T03:04:14.835Z,44.8783
2019-04-01T03:04:40.195Z,44.8173
2019-04-01T03:05:05.576Z,44.8081
2019-04-01T03:05:30.961Z,44.7272
2019-04-01T03:05:56.344Z,44.7547
2019-04-01T03:06:19.781Z,44.7440
2019-04-01T03:06:43.107Z,44.7349
2019-04-01T03:07:06.433Z,44.5716
2019-04-01T03:07:29.792Z,44.5838
2019-04-01T03:07:53.109Z,44.5563
2019-04-01T03:08:16.441Z,44.4755
2019-04-01T03:08:39.829Z,44.4755
2019-04-01T03:09:03.182Z,44.5243
2019-04-01T03:09:26.533Z,44.6021
2019-04-01T03:09:49.922Z,44.6113
2019-04-01T03:10:13.243Z,44.5975
2019-04-01T03:10:36.567Z,44.5579
2019-04-01T03:10:59.941Z,44.4846
2019-04-01T03:11:23.323Z,44.4068
2019-04-01T03:11:46.662Z,44.4831
2019-04-01T03:12:10.032Z,44.4846
2019-04-01T03:12:33.373Z,44.1810
2019-04-01T03:12:56.710Z,44.2084
2019-04-01T03:13:22.140Z,44.2466
2019-04-01T03:13:47.534Z,44.1856
2019-04-01T03:14:13.206Z,44.2832
2019-04-01T03:14:28.325Z,44.2969
2019-04-01T03:14:53.704Z,44.2832
2019-04-01T03:15:19.117Z,44.4434
2019-04-01T03:15:44.505Z,44.2634
2019-04-01T03:16:07.925Z,44.3412
2019-04-01T03:16:31.325Z,44.3336
2019-04-01T03:16:54.656Z,44.4190
2019-04-01T03:17:18.035Z,44.3061
2019-04-01T03:17:41.354Z,44.2786
2019-04-01T03:18:04.681Z,44.2786
2019-04-01T03:18:28.054Z,44.2039
2019-04-01T03:18:51.380Z,44.2359
2019-04-01T03:19:14.718Z,44.1733
2019-04-01T03:19:40.149Z,44.0864
2019-04-01T03:20:05.700Z,44.0848
2019-04-01T03:20:31.104Z,43.9475
2019-04-01T03:20:56.628Z,43.9750
2019-04-01T03:21:22.029Z,44.1733
2019-04-01T03:21:47.413Z,43.9124
2019-04-01T03:22:10.830Z,44.0681
2019-04-01T03:22:34.163Z,43.9673
2019-04-01T03:22:57.524Z,43.9124
2019-04-01T03:23:20.900Z,43.9063
2019-04-01T03:23:44.338Z,44.0452
2019-04-01T03:24:07.675Z,44.1093
2019-04-01T03:24:31.101Z,44.1901
2019-04-01T03:24:54.430Z,44.0574
2019-04-01T03:25:17.755Z,43.9841
2019-04-01T03:25:41.167Z,43.9704
2019-04-01T03:26:04.486Z,44.0040
2019-04-01T03:26:27.810Z,43.9841
2019-04-01T03:26:51.173Z,43.9216
2019-04-01T03:27:17.201Z,43.7964
2019-04-01T03:27:41.058Z,43.6637
2019-04-01T03:28:04.421Z,43.7507
2019-04-01T03:28:27.756Z,43.7613
2019-04-01T03:28:51.082Z,43.6271
2019-04-01T03:29:14.495Z,43.7736
2019-04-01T03:29:37.873Z,43.7980
2019-04-01T03:30:01.227Z,43.8514
2019-04-01T03:30:24.594Z,43.8743
2019-04-01T03:30:47.940Z,43.8193
2019-04-01T03:31:11.339Z,43.7095
2019-04-01T03:31:34.719Z,43.7613
2019-04-01T03:31:58.037Z,43.6866
2019-04-01T03:32:21.400Z,43.7461
2019-04-01T03:32:45.760Z,43.8987
2019-04-01T03:33:09.201Z,43.7613
2019-04-01T03:33:32.558Z,43.7827
2019-04-01T03:33:56.185Z,43.7201
2019-04-01T03:34:19.558Z,43.7430
2019-04-01T03:34:42.918Z,43.6057
2019-04-01T03:35:06.365Z,43.6332
2019-04-01T03:35:29.719Z,43.5462
2019-04-01T03:35:53.063Z,43.5828
2019-04-01T03:36:16.593Z,43.6240
2019-04-01T03:36:39.928Z,43.6698
2019-04-01T03:37:03.281Z,43.6194
2019-04-01T03:37:26.682Z,43.6179
2019-04-01T03:37:50.014Z,43.6179
2019-04-01T03:38:13.361Z,43.4775
2019-04-01T03:38:36.727Z,43.3249
2019-04-01T03:39:00.046Z,43.3616
2019-04-01T03:39:23.367Z,43.3524
2019-04-01T03:39:46.789Z,43.3768
2019-04-01T03:40:10.115Z,43.4684
2019-04-01T03:40:33.441Z,43.3890
2019-04-01T03:40:56.827Z,43.5096
2019-04-01T03:41:20.150Z,43.2990
2019-04-01T03:41:43.485Z,43.1556
2019-04-01T03:42:06.843Z,43.1662
2019-04-01T03:42:30.196Z,43.2303
2019-04-01T03:42:53.528Z,43.2334
2019-04-01T03:43:16.948Z,43.0777
2019-04-01T03:43:40.279Z,43.0655
2019-04-01T03:44:03.603Z,43.0640
2019-04-01T03:44:26.986Z,42.9953
2019-04-01T03:44:54.783Z,43.1891
2019-04-01T03:45:19.600Z,43.0930
2019-04-01T03:45:42.975Z,43.0701
2019-04-01T03:46:06.326Z,43.1647
2019-04-01T03:46:29.675Z,43.0106
2019-04-01T03:46:53.088Z,42.9694
2019-04-01T03:47:16.410Z,43.1647
2019-04-01T03:47:39.739Z,43.1617
2019-04-01T03:48:03.122Z,43.0930
2019-04-01T03:48:26.462Z,43.1296
2019-04-01T03:48:49.788Z,43.2258
2019-04-01T03:49:13.190Z,43.1891
2019-04-01T03:49:36.534Z,43.1525
2019-04-01T03:49:59.886Z,43.1006
2019-04-01T03:50:23.302Z,43.1968
2019-04-01T03:50:46.614Z,43.1296
2019-04-01T03:51:09.948Z,43.2532
2019-04-01T03:51:33.341Z,43.0884
2019-04-01T03:51:56.674Z,43.1327
2019-04-01T03:52:20.028Z,43.1968
2019-04-01T03:52:43.423Z,43.2105
2019-04-01T03:53:06.749Z,43.4348
2019-04-01T03:53:30.082Z,43.2929
2019-04-01T03:53:53.659Z,43.1800
2019-04-01T03:54:16.970Z,43.2761
2019-04-01T03:54:40.300Z,43.3310
2019-04-01T03:55:03.711Z,43.2609
2019-04-01T03:55:27.048Z,43.2334
2019-04-01T03:55:50.373Z,43.3295
2019-04-01T03:56:13.736Z,43.2624
2019-04-01T03:56:37.067Z,43.2212
2019-04-01T03:57:00.399Z,43.1525
2019-04-01T03:57:23.847Z,43.1250
2019-04-01T03:57:47.183Z,43.0823
2019-04-01T03:58:10.530Z,43.0961
2019-04-01T03:58:33.922Z,43.1235
2019-04-01T03:58:57.258Z,42.9725
2019-04-01T03:59:20.594Z,42.9541
2019-04-01T03:59:44.096Z,42.8183
2019-04-01T04:00:07.748Z,42.9999
2019-04-01T04:00:31.080Z,42.8717
2019-04-01T04:00:54.533Z,42.8183
2019-04-01T04:01:07.472Z,42.8092
2019-04-01T04:01:30.931Z,42.8321
2019-04-01T04:01:54.263Z,42.7771
2019-04-01T04:02:17.670Z,42.9465
2019-04-01T04:02:41.013Z,42.8901
2019-04-01T04:03:04.334Z,42.8351
2019-04-01T04:03:29.800Z,42.8367
2019-04-01T04:03:55.166Z,42.9007
2019-04-01T04:04:20.558Z,43.0243
2019-04-01T04:04:45.930Z,42.8458
2019-04-01T04:05:11.329Z,42.8351
2019-04-01T04:05:36.712Z,42.7390
2019-04-01T04:06:00.146Z,42.6993
2019-04-01T04:06:23.510Z,42.7161
2019-04-01T04:06:46.846Z,42.6398
2019-04-01T04:07:10.225Z,42.7390
2019-04-01T04:07:33.555Z,42.7848
2019-04-01T04:07:56.863Z,42.7131
2019-04-01T04:08:20.240Z,42.6810
2019-04-01T04:08:43.569Z,42.6566
2019-04-01T04:09:06.971Z,42.6673
2019-04-01T04:09:32.546Z,42.7527
2019-04-01T04:09:57.951Z,42.7619
2019-04-01T04:10:23.358Z,42.7817
2019-04-01T04:10:48.732Z,42.7802
2019-04-01T04:11:14.110Z,42.6947
2019-04-01T04:11:39.505Z,42.6123
2019-04-01T04:12:05.050Z,42.5971
2019-04-01T04:12:30.426Z,42.7085
2019-04-01T04:12:55.808Z,42.5834
2019-04-01T04:13:21.197Z,42.5299
2019-04-01T04:13:46.592Z,42.5528
2019-04-01T04:14:11.977Z,42.5834
2019-04-01T04:14:37.387Z,42.5254
2019-04-01T04:15:02.781Z,42.4063
2019-04-01T04:15:28.198Z,42.3499
2019-04-01T04:15:53.578Z,42.4201
2019-04-01T04:16:18.950Z,42.4292
2019-04-01T04:16:44.334Z,42.4826
2019-04-01T04:17:10.094Z,42.4826
2019-04-01T04:17:35.481Z,42.4521
2019-04-01T04:18:00.859Z,42.4964
2019-04-01T04:18:26.243Z,42.3972
2019-04-01T04:18:51.613Z,42.4659
2019-04-01T04:19:16.993Z,42.4826
2019-04-01T04:19:40.510Z,42.3285
2019-04-01T04:20:03.834Z,42.4247
2019-04-01T04:20:27.193Z,42.4384
2019-04-01T04:20:50.594Z,42.3819
2019-04-01T04:21:13.930Z,42.4750
2019-04-01T04:21:37.263Z,42.4475
2019-04-01T04:22:00.641Z,42.3316
2019-04-01T04:22:23.971Z,42.3240
2019-04-01T04:22:47.368Z,42.2736
2019-04-01T04:23:10.775Z,42.2217
2019-04-01T04:23:34.122Z,42.3423
2019-04-01T04:23:57.435Z,42.3407
2019-04-01T04:24:20.824Z,42.3041
2019-04-01T04:24:44.150Z,42.2324
2019-04-01T04:25:07.483Z,42.2873
2019-04-01T04:25:30.850Z,42.3285
2019-04-01T04:25:54.196Z,42.2461
2019-04-01T04:26:17.539Z,42.3270
2019-04-01T04:26:40.929Z,42.2446
2019-04-01T04:27:04.251Z,42.3545
2019-04-01T04:27:27.572Z,42.3652
2019-04-01T04:27:51.014Z,42.3652
2019-04-01T04:28:14.373Z,42.2995
2019-04-01T04:28:37.702Z,42.3407
2019-04-01T04:29:01.097Z,42.2995
2019-04-01T04:29:24.426Z,42.2599
2019-04-01T04:29:47.760Z,42.1897
2019-04-01T04:30:11.156Z,42.2400
2019-04-01T04:30:34.475Z,42.2416
2019-04-01T04:30:57.852Z,42.3270
2019-04-01T04:31:21.207Z,42.2278
2019-04-01T04:31:44.542Z,42.2721
2019-04-01T04:32:07.867Z,42.0768
2019-04-01T04:32:31.221Z,42.1164
2019-04-01T04:32:54.554Z,42.1439
2019-04-01T04:33:07.341Z,42.0798
2019-04-01T04:33:30.677Z,42.0523
2019-04-01T04:33:54.078Z,41.9532
2019-04-01T04:34:17.463Z,42.0615
2019-04-01T04:34:40.784Z,42.1820
2019-04-01T04:35:04.160Z,42.2782
2019-04-01T04:35:27.485Z,42.2950
2019-04-01T04:35:50.812Z,42.2782
2019-04-01T04:36:14.378Z,42.2675
2019-04-01T04:36:37.709Z,42.1942
2019-04-01T04:37:01.045Z,42.2370
2019-04-01T04:37:24.591Z,42.1988
2019-04-01T04:37:47.924Z,42.1576
2019-04-01T04:38:11.253Z,42.0630
2019-04-01T04:38:34.626Z,42.1042
2019-04-01T04:38:57.969Z,42.1180
2019-04-01T04:39:21.309Z,42.1408
2019-04-01T04:39:44.672Z,42.1180
2019-04-01T04:40:07.988Z,42.1302
2019-04-01T04:40:31.307Z,42.1027
2019-04-01T04:40:54.728Z,42.0935
2019-04-01T04:41:18.120Z,42.1042
2019-04-01T04:41:41.445Z,42.0172
2019-04-01T04:42:04.810Z,42.0294
2019-04-01T04:42:28.144Z,42.2080
2019-04-01T04:42:51.483Z,42.1637
2019-04-01T04:43:14.835Z,42.1942
2019-04-01T04:43:38.168Z,42.2080
2019-04-01T04:44:01.608Z,42.1683
2019-04-01T04:44:27.173Z,42.0706
2019-04-01T04:44:52.563Z,42.1500
2019-04-01T04:45:17.945Z,42.1347
2019-04-01T04:45:43.326Z,42.0844
2019-04-01T04:46:08.703Z,42.0539